Terminal Aerodrome Forecast
Issued by NWS

Home | Current Version | Previous Version | Text Only | Print | Product List | Glossary On
Versions: 1 2 3 4 5 6 7 8 9 10 11 12 13 14 15
000
FTUS43 KMPX 241427 AAA
TAFAXN
TAF AMD
KAXN 241427Z 2414/2512 08010KT P6SM SCT025 BKN050
     FM242100 13008KT P6SM SCT025 BKN050
     FM242200 11008KT P6SM SCT070
     FM250500 14006KT P6SM FEW200=

USA.gov is the U.S. government's official web portal to all federal, state and local government web resources and services.